Time;durP1;ratioP1;P1;durP2;ratioP2;P2;SDS_P1;SDS_P2;PMS_P1;PMS_P2;Temp;Humidity;BMP_temperature;BMP_pressure;BME280_temperature;BME280_humidity;BME280_pressure;Samples;Min_cycle;Max_cycle;Signal;HPM_P1;HPM_P2
2023/04/25 00:02:13;;;;;;;;;;;19.60;41.70;;;;;;5105229;28;19921;-61
2023/04/25 00:04:39;;;;;;;;;;;19.60;41.70;;;;;;5071404;28;19973;-61
2023/04/25 00:07:06;;;;;;;;;;;19.60;41.70;;;;;;5070409;28;19920;-61
2023/04/25 00:09:33;;;;;;;;;;;19.60;41.70;;;;;;5084744;28;19950;-61
2023/04/25 00:12:01;;;;;;;;;;;19.60;41.70;;;;;;5051964;28;20019;-61
2023/04/25 00:14:28;;;;;;;;;;;19.60;41.70;;;;;;5088960;28;20015;-60
2023/04/25 00:16:55;;;;;;;;;;;19.60;41.70;;;;;;5073430;28;19930;-58
2023/04/25 00:19:23;;;;;;;;;;;19.60;41.70;;;;;;5083122;28;19981;-60
2023/04/25 00:21:49;;;;;;;;;;;19.60;41.70;;;;;;5069507;28;19921;-60
2023/04/25 00:24:16;;;;;;;;;;;19.60;41.80;;;;;;5051257;28;19920;-59
2023/04/25 00:26:43;;;;;;;;;;;19.60;41.80;;;;;;5070648;28;19931;-60
2023/04/25 00:29:10;;;;;;;;;;;19.60;41.80;;;;;;5089409;28;19927;-60
2023/04/25 00:31:36;;;;;;;;;;;19.60;41.80;;;;;;5089874;28;19920;-60
2023/04/25 00:34:03;;;;;;;;;;;19.60;41.80;;;;;;5089131;28;19946;-59
2023/04/25 00:36:31;;;;;;;;;;;19.50;41.70;;;;;;5070734;28;19924;-60
2023/04/25 00:38:58;;;;;;;;;;;19.50;41.70;;;;;;5071157;28;19977;-60
2023/04/25 00:41:26;;;;;;;;;;;19.50;41.70;;;;;;5070845;28;19970;-61
2023/04/25 00:43:53;;;;;;;;;;;19.60;41.80;;;;;;5072883;28;19939;-60
2023/04/25 00:46:19;;;;;;;;;;;19.50;41.70;;;;;;5092972;28;19959;-59
2023/04/25 00:48:46;;;;;;;;;;;19.50;41.70;;;;;;5075078;28;20000;-61
2023/04/25 00:51:14;;;;;;;;;;;19.50;41.70;;;;;;5074610;28;20305;-61
2023/04/25 00:53:42;;;;;;;;;;;19.50;41.70;;;;;;5058718;28;19948;-60
2023/04/25 00:56:09;;;;;;;;;;;19.50;41.70;;;;;;5071470;28;19921;-60
2023/04/25 00:58:36;;;;;;;;;;;19.50;41.60;;;;;;5070188;28;19946;-61
2023/04/25 01:01:03;;;;;;;;;;;19.50;41.60;;;;;;5058974;28;19928;-61
2023/04/25 01:03:30;;;;;;;;;;;19.50;41.60;;;;;;5070032;28;19920;-61
2023/04/25 01:05:57;;;;;;;;;;;19.50;41.60;;;;;;5077623;28;19944;-60
2023/04/25 01:08:24;;;;;;;;;;;19.50;41.50;;;;;;5083330;28;19924;-60
2023/04/25 01:10:52;;;;;;;;;;;19.50;41.50;;;;;;5088666;28;19954;-61
2023/04/25 01:13:19;;;;;;;;;;;19.50;41.40;;;;;;5068274;28;19924;-61
2023/04/25 01:15:46;;;;;;;;;;;19.50;41.40;;;;;;5074760;28;19920;-60
2023/04/25 01:18:13;;;;;;;;;;;19.40;41.30;;;;;;5107781;28;19999;-61
2023/04/25 01:20:40;;;;;;;;;;;19.40;41.30;;;;;;5088711;28;19970;-60
2023/04/25 01:23:08;;;;;;;;;;;19.40;41.20;;;;;;5075730;28;19924;-59
2023/04/25 01:25:34;;;;;;;;;;;19.40;41.20;;;;;;5081812;28;19920;-60
2023/04/25 01:28:01;;;;;;;;;;;19.50;41.20;;;;;;5068758;28;19920;-60
2023/04/25 01:33:31;;;;;;;;;;;19.50;41.10;;;;;;5072765;28;19908;-61
2023/04/25 01:35:58;;;;;;;;;;;19.40;41.00;;;;;;5091158;28;19920;-60
2023/04/25 01:38:27;;;;;;;;;;;19.40;40.90;;;;;;5089978;28;19939;-62
2023/04/25 01:40:54;;;;;;;;;;;19.40;40.90;;;;;;5085099;28;19924;-60
2023/04/25 01:43:20;;;;;;;;;;;19.40;40.90;;;;;;5085127;28;19981;-59
2023/04/25 01:45:47;;;;;;;;;;;19.40;40.80;;;;;;5074445;28;19924;-60
2023/04/25 01:48:14;;;;;;;;;;;19.40;40.80;;;;;;5073183;28;19969;-60
2023/04/25 01:50:41;;;;;;;;;;;19.40;40.70;;;;;;5063626;28;19921;-61
2023/04/25 01:53:08;;;;;;;;;;;19.40;40.70;;;;;;5064987;28;19920;-61
2023/04/25 01:55:36;;;;;;;;;;;19.40;40.70;;;;;;5086356;28;20395;-60
2023/04/25 01:58:03;;;;;;;;;;;19.40;40.70;;;;;;5053721;28;20286;-60
2023/04/25 02:00:30;;;;;;;;;;;19.40;40.70;;;;;;5052986;28;20081;-61
2023/04/25 02:02:58;;;;;;;;;;;19.30;40.60;;;;;;5063222;28;19924;-60
2023/04/25 02:05:25;;;;;;;;;;;19.30;40.60;;;;;;5091370;28;19920;-60
2023/04/25 02:07:52;;;;;;;;;;;19.30;40.60;;;;;;5054127;28;20321;-61
2023/04/25 02:13:23;;;;;;;;;;;19.40;40.60;;;;;;5073267;28;19983;-61
2023/04/25 02:15:49;;;;;;;;;;;19.30;40.40;;;;;;5062698;28;19921;-61
2023/04/25 02:18:16;;;;;;;;;;;19.30;40.40;;;;;;5071355;28;19924;-61
2023/04/25 02:20:44;;;;;;;;;;;19.30;40.40;;;;;;5091280;28;19987;-60
2023/04/25 02:23:10;;;;;;;;;;;19.30;40.30;;;;;;5073093;28;20285;-60
2023/04/25 02:25:37;;;;;;;;;;;19.30;40.30;;;;;;5090957;28;19920;-61
2023/04/25 02:28:04;;;;;;;;;;;19.30;40.30;;;;;;5084687;28;19936;-60
2023/04/25 02:30:32;;;;;;;;;;;19.30;40.30;;;;;;5090786;28;20015;-61
2023/04/25 02:32:59;;;;;;;;;;;19.30;40.20;;;;;;5090123;28;19959;-61
2023/04/25 02:35:26;;;;;;;;;;;19.30;40.20;;;;;;5085321;28;19932;-61
2023/04/25 02:37:52;;;;;;;;;;;19.30;40.20;;;;;;5058419;28;19924;-61
2023/04/25 02:40:19;;;;;;;;;;;19.30;40.10;;;;;;5070225;28;19928;-61
2023/04/25 02:42:46;;;;;;;;;;;19.30;40.00;;;;;;5089966;28;19924;-61
2023/04/25 02:45:13;;;;;;;;;;;19.30;40.00;;;;;;5075684;28;19986;-61
2023/04/25 02:47:41;;;;;;;;;;;19.30;40.00;;;;;;5056434;28;20254;-60
2023/04/25 02:50:08;;;;;;;;;;;19.30;39.90;;;;;;5072446;28;19986;-60
2023/04/25 02:52:35;;;;;;;;;;;19.30;39.90;;;;;;5072960;28;19924;-60
2023/04/25 02:55:02;;;;;;;;;;;19.30;39.80;;;;;;5070305;28;19920;-60
2023/04/25 02:57:29;;;;;;;;;;;19.20;39.70;;;;;;5072892;28;19927;-60
2023/04/25 02:59:55;;;;;;;;;;;19.20;40.20;;;;;;5089540;28;19927;-60
2023/04/25 03:02:22;;;;;;;;;;;19.20;40.10;;;;;;5087815;28;19943;-61
2023/04/25 03:04:50;;;;;;;;;;;19.20;39.50;;;;;;5072629;28;19924;-60
2023/04/25 03:07:17;;;;;;;;;;;19.20;39.50;;;;;;5087836;28;19962;-61
2023/04/25 03:09:44;;;;;;;;;;;19.20;39.40;;;;;;5089255;28;19924;-60
2023/04/25 03:48:25;;;;;;;;;;;19.20;39.00;;;;;;5050982;28;19909;-61
2023/04/25 03:50:52;;;;;;;;;;;19.20;38.90;;;;;;5070313;28;19920;-61
2023/04/25 03:53:19;;;;;;;;;;;19.20;38.90;;;;;;5084502;28;19920;-61
2023/04/25 03:55:46;;;;;;;;;;;19.20;38.80;;;;;;5082814;28;19928;-61
2023/04/25 03:58:13;;;;;;;;;;;19.20;38.80;;;;;;5055537;28;19920;-61
2023/04/25 04:00:40;;;;;;;;;;;19.20;38.70;;;;;;5067618;28;19924;-61
2023/04/25 04:03:07;;;;;;;;;;;19.10;38.60;;;;;;5051397;28;19924;-61
2023/04/25 04:05:35;;;;;;;;;;;19.20;38.60;;;;;;5050841;28;19994;-62
2023/04/25 04:08:02;;;;;;;;;;;19.20;38.60;;;;;;5071506;28;19920;-60
2023/04/25 04:10:28;;;;;;;;;;;19.10;38.50;;;;;;5087983;28;20293;-60
2023/04/25 04:12:55;;;;;;;;;;;19.20;38.60;;;;;;5071849;28;20325;-59
2023/04/25 04:15:22;;;;;;;;;;;19.10;38.40;;;;;;5071155;28;19924;-58
2023/04/25 04:17:49;;;;;;;;;;;19.20;38.40;;;;;;5053061;28;19936;-59
2023/04/25 04:20:15;;;;;;;;;;;19.10;38.30;;;;;;5075556;28;19927;-60
2023/04/25 04:22:43;;;;;;;;;;;19.10;38.30;;;;;;5089030;28;20011;-61
2023/04/25 04:25:11;;;;;;;;;;;19.10;38.20;;;;;;5073229;28;19920;-60
2023/04/25 04:27:39;;;;;;;;;;;19.10;38.20;;;;;;5087891;28;19955;-61
2023/04/25 04:30:06;;;;;;;;;;;19.10;38.20;;;;;;5093716;28;20488;-62
2023/04/25 04:32:34;;;;;;;;;;;19.10;38.10;;;;;;5088506;28;19925;-62
2023/04/25 04:35:04;;;;;;;;;;;19.10;38.10;;;;;;5055246;28;19920;-61
2023/04/25 04:37:30;;;;;;;;;;;19.10;38.10;;;;;;5086202;28;20377;-61
2023/04/25 04:39:59;;;;;;;;;;;19.10;38.10;;;;;;5075504;28;20338;-60
2023/04/25 04:42:26;;;;;;;;;;;19.10;38.10;;;;;;5093218;28;19952;-61
2023/04/25 04:44:54;;;;;;;;;;;19.10;38.10;;;;;;5092290;28;19969;-60
2023/04/25 04:47:23;;;;;;;;;;;19.10;38.00;;;;;;5062514;28;20019;-61
2023/04/25 04:49:50;;;;;;;;;;;19.10;37.90;;;;;;5074867;28;19935;-60
2023/04/25 04:52:16;;;;;;;;;;;19.10;38.50;;;;;;5083502;28;19960;-60
2023/04/25 04:54:43;;;;;;;;;;;19.10;37.90;;;;;;5061057;28;19920;-61
2023/04/25 04:57:11;;;;;;;;;;;19.10;37.90;;;;;;5069240;28;19928;-59
2023/04/25 04:59:38;;;;;;;;;;;19.10;37.90;;;;;;5084115;28;19928;-59
2023/04/25 05:02:05;;;;;;;;;;;19.10;37.90;;;;;;5068537;28;19969;-60
2023/04/25 05:04:32;;;;;;;;;;;19.10;37.90;;;;;;5063589;28;19959;-61
2023/04/25 05:06:58;;;;;;;;;;;19.00;37.80;;;;;;5084269;28;20337;-60
2023/04/25 05:09:26;;;;;;;;;;;19.00;37.70;;;;;;5065722;28;20347;-61
2023/04/25 05:11:53;;;;;;;;;;;19.00;37.70;;;;;;5083209;28;19978;-59
2023/04/25 05:14:21;;;;;;;;;;;19.00;37.70;;;;;;5065255;28;19977;-60
2023/04/25 05:16:48;;;;;;;;;;;19.10;37.80;;;;;;5063791;28;20015;-61
2023/04/25 05:19:15;;;;;;;;;;;19.10;37.80;;;;;;5066484;28;19924;-60
2023/04/25 05:21:42;;;;;;;;;;;19.10;37.80;;;;;;5078195;28;19920;-61
2023/04/25 05:24:09;;;;;;;;;;;19.10;37.80;;;;;;5085307;28;19955;-60
2023/04/25 05:26:36;;;;;;;;;;;19.10;37.90;;;;;;5068130;28;19956;-60
2023/04/25 05:29:03;;;;;;;;;;;19.00;37.80;;;;;;5069363;28;19970;-60
2023/04/25 05:31:31;;;;;;;;;;;19.00;37.70;;;;;;5070235;28;19972;-60
2023/04/25 05:33:58;;;;;;;;;;;19.10;37.80;;;;;;5079195;28;20039;-61
2023/04/25 05:36:25;;;;;;;;;;;19.00;37.70;;;;;;5069472;28;19920;-60
2023/04/25 05:38:52;;;;;;;;;;;19.10;37.80;;;;;;5067401;28;19920;-60
2023/04/25 05:41:19;;;;;;;;;;;19.10;37.70;;;;;;5072827;28;19955;-59
2023/04/25 05:43:48;;;;;;;;;;;19.00;37.60;;;;;;5061971;28;19928;-61
2023/04/25 05:46:15;;;;;;;;;;;19.10;37.70;;;;;;5084806;28;19924;-60
2023/04/25 05:48:43;;;;;;;;;;;19.10;37.60;;;;;;5085173;28;19960;-59
2023/04/25 05:51:10;;;;;;;;;;;19.10;37.60;;;;;;5064760;28;19989;-60
2023/04/25 05:53:36;;;;;;;;;;;19.10;37.60;;;;;;5088802;28;19920;-60
2023/04/25 05:56:03;;;;;;;;;;;19.10;37.60;;;;;;5086015;28;19931;-58
2023/04/25 05:58:30;;;;;;;;;;;19.00;37.50;;;;;;5085124;28;20009;-60
2023/04/25 06:00:58;;;;;;;;;;;19.00;37.40;;;;;;5087304;28;20239;-60
2023/04/25 06:03:24;;;;;;;;;;;19.00;37.40;;;;;;5072451;28;19931;-59
2023/04/25 06:05:53;;;;;;;;;;;19.00;37.50;;;;;;5079919;28;19924;-60
2023/04/25 06:08:19;;;;;;;;;;;19.00;37.50;;;;;;5086496;28;19920;-59
2023/04/25 06:10:46;;;;;;;;;;;19.00;37.60;;;;;;5066115;28;19996;-59
2023/04/25 06:13:13;;;;;;;;;;;19.00;38.20;;;;;;5065945;28;19942;-60
2023/04/25 06:15:40;;;;;;;;;;;19.00;37.60;;;;;;5089559;28;20322;-59
2023/04/25 06:18:07;;;;;;;;;;;19.00;37.60;;;;;;5063879;28;19920;-60
2023/04/25 06:20:33;;;;;;;;;;;19.00;37.60;;;;;;5067832;28;19924;-59
2023/04/25 06:23:02;;;;;;;;;;;19.00;37.60;;;;;;5068385;28;19942;-59
2023/04/25 06:25:28;;;;;;;;;;;19.00;37.60;;;;;;5054229;28;20232;-59
2023/04/25 06:27:55;;;;;;;;;;;19.00;37.60;;;;;;5077163;28;19973;-59
2023/04/25 06:30:25;;;;;;;;;;;19.00;37.70;;;;;;5072810;28;19982;-60
2023/04/25 06:32:52;;;;;;;;;;;19.00;37.70;;;;;;5072224;28;19920;-60
2023/04/25 06:35:20;;;;;;;;;;;19.00;37.60;;;;;;5072929;28;19924;-60
2023/04/25 06:37:46;;;;;;;;;;;19.10;37.60;;;;;;5090131;28;19919;-59
2023/04/25 06:40:14;;;;;;;;;;;19.00;37.50;;;;;;5074036;28;19978;-59
2023/04/25 06:42:41;;;;;;;;;;;19.00;37.50;;;;;;5061277;28;19920;-60
2023/04/25 06:45:08;;;;;;;;;;;19.00;37.50;;;;;;5080984;28;19920;-61
2023/04/25 06:47:35;;;;;;;;;;;19.00;37.50;;;;;;5076213;28;20311;-61
2023/04/25 06:50:02;;;;;;;;;;;19.00;37.60;;;;;;5062471;28;19924;-60
2023/04/25 06:52:29;;;;;;;;;;;19.00;37.70;;;;;;5063839;28;20017;-60
2023/04/25 06:54:56;;;;;;;;;;;19.00;37.80;;;;;;5063031;28;19920;-61
2023/04/25 06:57:25;;;;;;;;;;;19.00;37.90;;;;;;5077860;28;20444;-59
2023/04/25 06:59:52;;;;;;;;;;;19.00;38.00;;;;;;5063212;28;19924;-61
2023/04/25 07:02:18;;;;;;;;;;;19.10;38.10;;;;;;5060792;28;20117;-61
2023/04/25 07:04:46;;;;;;;;;;;19.10;38.00;;;;;;5061468;28;19924;-60
2023/04/25 07:07:12;;;;;;;;;;;19.10;38.10;;;;;;5060521;28;19931;-61
2023/04/25 07:09:39;;;;;;;;;;;19.10;38.10;;;;;;5066082;28;19932;-61
2023/04/25 07:12:06;;;;;;;;;;;19.10;38.10;;;;;;5064163;28;19924;-60
2023/04/25 07:14:34;;;;;;;;;;;19.10;38.10;;;;;;5061988;28;19965;-60
2023/04/25 07:17:01;;;;;;;;;;;19.10;38.10;;;;;;5082157;28;19966;-60
2023/04/25 07:19:29;;;;;;;;;;;19.10;38.00;;;;;;5061803;28;19932;-59
2023/04/25 07:21:56;;;;;;;;;;;19.20;38.10;;;;;;5081784;28;19933;-60
2023/04/25 07:24:23;;;;;;;;;;;19.20;38.10;;;;;;5064145;28;19939;-61
2023/04/25 07:26:49;;;;;;;;;;;19.20;38.10;;;;;;5071697;28;19931;-61
2023/04/25 07:29:16;;;;;;;;;;;19.20;38.10;;;;;;5071509;28;20008;-60
2023/04/25 07:31:45;;;;;;;;;;;19.20;38.10;;;;;;5087596;28;19970;-60
2023/04/25 07:34:11;;;;;;;;;;;19.20;38.10;;;;;;5089680;28;19920;-60
2023/04/25 07:36:38;;;;;;;;;;;19.20;38.00;;;;;;5086729;28;19952;-60
2023/04/25 07:39:05;;;;;;;;;;;19.20;38.00;;;;;;5059800;28;19951;-61
2023/04/25 07:41:31;;;;;;;;;;;19.20;37.80;;;;;;5071184;28;19925;-60
2023/04/25 07:43:58;;;;;;;;;;;19.20;37.80;;;;;;5053456;28;19964;-59
2023/04/25 07:46:25;;;;;;;;;;;19.20;37.90;;;;;;5051716;28;19924;-60
2023/04/25 07:48:53;;;;;;;;;;;19.20;37.90;;;;;;5051899;28;19925;-60
2023/04/25 07:51:21;;;;;;;;;;;19.20;37.90;;;;;;5070614;28;19931;-61
2023/04/25 07:53:48;;;;;;;;;;;19.20;37.90;;;;;;5055278;28;19920;-60
2023/04/25 07:56:15;;;;;;;;;;;19.20;37.80;;;;;;5070226;28;20358;-61
2023/04/25 07:58:42;;;;;;;;;;;19.20;37.70;;;;;;5065393;28;19920;-61
2023/04/25 08:01:08;;;;;;;;;;;19.20;37.80;;;;;;5089829;28;19920;-58
2023/04/25 08:03:35;;;;;;;;;;;19.20;37.90;;;;;;5074697;28;19927;-59
2023/04/25 08:06:04;;;;;;;;;;;19.20;37.90;;;;;;5069659;28;20317;-60
2023/04/25 08:08:30;;;;;;;;;;;19.20;37.80;;;;;;5066660;28;19924;-60
2023/04/25 08:10:57;;;;;;;;;;;19.20;37.80;;;;;;5058782;28;19947;-61
2023/04/25 08:13:24;;;;;;;;;;;19.30;37.80;;;;;;5070078;28;19927;-60
2023/04/25 08:15:51;;;;;;;;;;;19.30;37.80;;;;;;5085882;28;19924;-60
2023/04/25 08:18:17;;;;;;;;;;;19.30;37.80;;;;;;5069432;28;20255;-61
2023/04/25 08:20:44;;;;;;;;;;;19.30;37.70;;;;;;5059848;28;20278;-59
2023/04/25 08:23:13;;;;;;;;;;;19.30;37.70;;;;;;5086075;28;19971;-59
2023/04/25 08:25:39;;;;;;;;;;;19.20;37.60;;;;;;5063727;28;20011;-59
2023/04/25 08:28:06;;;;;;;;;;;19.30;37.60;;;;;;5079402;28;19966;-59
2023/04/25 08:30:33;;;;;;;;;;;19.20;37.40;;;;;;5065339;28;19994;-59
2023/04/25 08:33:00;;;;;;;;;;;19.20;37.40;;;;;;5066703;28;20087;-60
2023/04/25 08:35:27;;;;;;;;;;;19.20;37.40;;;;;;5068977;28;19951;-59
2023/04/25 08:37:54;;;;;;;;;;;19.20;37.30;;;;;;5076445;28;19979;-60
2023/04/25 08:40:25;;;;;;;;;;;19.20;37.30;;;;;;5074324;28;19931;-58
2023/04/25 08:42:52;;;;;;;;;;;19.20;37.30;;;;;;5068038;28;19927;-60
2023/04/25 08:45:19;;;;;;;;;;;19.20;37.20;;;;;;5067877;28;19969;-60
2023/04/25 08:47:48;;;;;;;;;;;19.20;37.10;;;;;;5079553;28;19956;-61
2023/04/25 08:50:15;;;;;;;;;;;19.20;37.20;;;;;;5081864;28;20017;-61
2023/04/25 08:52:44;;;;;;;;;;;19.20;37.10;;;;;;5074556;28;19921;-60
2023/04/25 08:55:11;;;;;;;;;;;19.20;37.20;;;;;;5057271;28;19924;-60
2023/04/25 08:57:40;;;;;;;;;;;19.20;37.10;;;;;;5068613;28;19920;-59
2023/04/25 09:00:08;;;;;;;;;;;19.20;37.00;;;;;;5059498;28;19924;-59
2023/04/25 09:02:35;;;;;;;;;;;19.20;36.90;;;;;;5065273;28;19924;-58
2023/04/25 09:05:02;;;;;;;;;;;19.20;36.90;;;;;;5060270;28;19920;-58
2023/04/25 09:07:29;;;;;;;;;;;19.20;36.90;;;;;;5083386;28;19927;-61
2023/04/25 09:09:55;;;;;;;;;;;19.20;36.50;;;;;;5083805;28;19985;-60
2023/04/25 09:12:22;;;;;;;;;;;19.10;36.20;;;;;;5086564;28;20356;-61
2023/04/25 09:15:07;;;;;;;;;;;19.10;36.60;;;;;;5083449;28;20247;-61
2023/04/25 09:17:33;;;;;;;;;;;19.10;36.80;;;;;;5065353;28;19951;-62
2023/04/25 09:20:08;;;;;;;;;;;19.20;37.10;;;;;;5062888;28;19935;-62
2023/04/25 09:22:35;;;;;;;;;;;19.10;37.20;;;;;;5063130;28;19924;-62
2023/04/25 09:25:03;;;;;;;;;;;19.20;37.40;;;;;;5064991;28;19920;-63
2023/04/25 09:27:29;;;;;;;;;;;19.20;37.40;;;;;;5084280;28;19927;-61
2023/04/25 09:29:57;;;;;;;;;;;19.30;37.70;;;;;;5080190;28;20436;-61
2023/04/25 09:32:25;;;;;;;;;;;19.30;37.70;;;;;;5062815;28;19932;-62
2023/04/25 09:34:53;;;;;;;;;;;19.40;37.80;;;;;;5067003;28;19927;-63
2023/04/25 09:37:20;;;;;;;;;;;19.40;37.90;;;;;;5061713;28;19966;-62
2023/04/25 09:39:47;;;;;;;;;;;19.40;38.50;;;;;;5083230;28;19973;-62
2023/04/25 09:42:14;;;;;;;;;;;19.50;38.00;;;;;;5082670;28;20015;-61
2023/04/25 09:44:43;;;;;;;;;;;19.40;38.00;;;;;;5084834;28;19952;-61
2023/04/25 09:47:11;;;;;;;;;;;19.50;38.10;;;;;;5064537;28;19933;-61
2023/04/25 09:49:39;;;;;;;;;;;19.50;38.20;;;;;;5080325;28;19928;-62
2023/04/25 09:52:06;;;;;;;;;;;19.50;38.20;;;;;;5084315;28;19959;-61
2023/04/25 09:54:32;;;;;;;;;;;19.50;38.30;;;;;;5065593;28;19924;-62
2023/04/25 09:57:02;;;;;;;;;;;19.60;38.40;;;;;;5065873;28;19929;-62
2023/04/25 09:59:29;;;;;;;;;;;19.60;38.50;;;;;;5081710;28;19924;-62
2023/04/25 10:01:56;;;;;;;;;;;19.60;38.50;;;;;;5083887;28;19925;-62
2023/04/25 10:04:24;;;;;;;;;;;19.60;38.50;;;;;;5077252;28;20122;-61
2023/04/25 10:06:52;;;;;;;;;;;19.60;38.60;;;;;;5082955;28;20027;-66
2023/04/25 10:09:20;;;;;;;;;;;19.60;38.60;;;;;;5076810;28;19920;-63
2023/04/25 10:11:47;;;;;;;;;;;19.70;38.60;;;;;;5069414;28;19955;-62
2023/04/25 10:14:14;;;;;;;;;;;19.70;38.70;;;;;;5078712;28;20317;-60
2023/04/25 10:16:41;;;;;;;;;;;19.70;38.70;;;;;;5063484;28;19962;-61
2023/04/25 10:19:08;;;;;;;;;;;19.70;38.70;;;;;;5065297;28;19981;-63
2023/04/25 10:21:35;;;;;;;;;;;19.70;38.70;;;;;;5064486;28;19932;-62
2023/04/25 10:24:03;;;;;;;;;;;19.70;38.80;;;;;;5062250;28;19978;-62
2023/04/25 10:26:29;;;;;;;;;;;19.70;38.80;;;;;;5063051;28;19921;-63
2023/04/25 10:28:56;;;;;;;;;;;19.80;38.90;;;;;;5069136;28;19924;-62
2023/04/25 10:31:23;;;;;;;;;;;19.80;38.90;;;;;;5067411;28;20034;-61
2023/04/25 10:33:50;;;;;;;;;;;19.80;38.90;;;;;;5077652;28;19970;-61
2023/04/25 10:36:18;;;;;;;;;;;19.80;38.90;;;;;;5065947;28;19991;-61
2023/04/25 10:38:47;;;;;;;;;;;19.80;39.00;;;;;;5067818;28;19920;-62
2023/04/25 10:41:15;;;;;;;;;;;19.80;39.00;;;;;;5082086;28;19973;-62
2023/04/25 10:43:43;;;;;;;;;;;19.80;39.00;;;;;;5062717;28;19923;-62
2023/04/25 10:46:16;;;;;;;;;;;19.80;39.00;;;;;;5079891;28;19920;-62
2023/04/25 10:48:46;;;;;;;;;;;19.80;39.00;;;;;;5074815;28;19921;-62
2023/04/25 10:51:16;;;;;;;;;;;19.80;39.00;;;;;;5062201;28;19924;-63
2023/04/25 10:53:44;;;;;;;;;;;19.80;39.00;;;;;;5080282;28;19924;-62
2023/04/25 10:56:22;;;;;;;;;;;19.80;39.10;;;;;;5066641;28;19924;-63
2023/04/25 10:58:50;;;;;;;;;;;19.80;39.10;;;;;;5063429;28;19924;-63
2023/04/25 11:01:20;;;;;;;;;;;19.90;39.20;;;;;;5083997;28;19920;-62
2023/04/25 11:03:50;;;;;;;;;;;19.90;39.20;;;;;;5078117;28;19921;-62
2023/04/25 11:06:21;;;;;;;;;;;19.90;39.20;;;;;;5085330;28;19924;-62
2023/04/25 11:08:48;;;;;;;;;;;19.90;39.30;;;;;;5084912;28;19924;-62
2023/04/25 11:11:15;;;;;;;;;;;19.90;39.20;;;;;;5067247;28;19931;-62
2023/04/25 11:13:42;;;;;;;;;;;19.90;39.30;;;;;;5088854;28;19924;-61
2023/04/25 11:16:10;;;;;;;;;;;19.90;39.20;;;;;;5088627;28;19932;-62
2023/04/25 11:18:38;;;;;;;;;;;19.90;39.30;;;;;;5067552;28;19920;-62
2023/04/25 11:21:06;;;;;;;;;;;19.90;39.30;;;;;;5071138;28;19955;-61
2023/04/25 11:23:33;;;;;;;;;;;19.90;39.30;;;;;;5072494;28;19928;-64
2023/04/25 11:26:01;;;;;;;;;;;19.90;39.30;;;;;;5071450;28;19928;-63
2023/04/25 11:28:28;;;;;;;;;;;19.90;39.90;;;;;;5066665;28;20020;-62
2023/04/25 11:30:55;;;;;;;;;;;19.90;39.90;;;;;;5084507;28;19935;-61
2023/04/25 11:33:25;;;;;;;;;;;19.90;39.30;;;;;;5070250;28;19920;-62
2023/04/25 11:35:53;;;;;;;;;;;19.90;39.30;;;;;;5073024;28;19935;-64
2023/04/25 11:38:19;;;;;;;;;;;19.90;39.30;;;;;;5064926;28;19927;-64
2023/04/25 11:40:50;;;;;;;;;;;19.90;39.30;;;;;;5085186;28;19985;-60
2023/04/25 11:43:20;;;;;;;;;;;19.90;39.30;;;;;;5060307;28;19925;-64
2023/04/25 11:45:48;;;;;;;;;;;19.90;39.30;;;;;;5066914;28;20282;-61
2023/04/25 11:48:15;;;;;;;;;;;19.90;39.30;;;;;;5082766;28;20412;-61
2023/04/25 11:50:43;;;;;;;;;;;19.90;39.30;;;;;;5091654;28;19920;-63
2023/04/25 11:53:10;;;;;;;;;;;19.90;39.30;;;;;;5088590;28;19920;-62
2023/04/25 11:55:37;;;;;;;;;;;19.90;39.30;;;;;;5064900;28;19920;-63
2023/04/25 11:58:05;;;;;;;;;;;19.90;39.30;;;;;;5082551;28;19932;-63
2023/04/25 12:00:32;;;;;;;;;;;19.90;39.30;;;;;;5063439;28;19932;-63
2023/04/25 12:02:59;;;;;;;;;;;19.90;39.30;;;;;;5064035;28;19927;-64
2023/04/25 12:05:26;;;;;;;;;;;19.90;39.30;;;;;;5061639;28;19925;-62
2023/04/25 12:07:55;;;;;;;;;;;19.90;39.40;;;;;;5068975;28;19950;-63
2023/04/25 12:10:21;;;;;;;;;;;19.90;39.40;;;;;;5081425;28;19924;-63
2023/04/25 12:12:48;;;;;;;;;;;19.90;39.40;;;;;;5080608;28;19974;-64
2023/04/25 12:15:17;;;;;;;;;;;19.90;39.50;;;;;;5060588;28;20338;-63
2023/04/25 12:17:45;;;;;;;;;;;20.00;39.60;;;;;;5084380;28;19932;-62
2023/04/25 12:20:13;;;;;;;;;;;20.00;39.60;;;;;;5067571;28;19920;-62
2023/04/25 12:22:44;;;;;;;;;;;20.00;39.60;;;;;;5071528;28;19924;-61
2023/04/25 12:25:13;;;;;;;;;;;20.00;39.60;;;;;;5058592;28;19987;-62
2023/04/25 12:27:41;;;;;;;;;;;20.00;39.70;;;;;;5060865;28;20025;-62
2023/04/25 12:30:08;;;;;;;;;;;20.00;39.70;;;;;;5082006;28;20390;-61
2023/04/25 12:32:35;;;;;;;;;;;20.00;39.70;;;;;;5059967;28;19924;-62
2023/04/25 12:35:02;;;;;;;;;;;20.00;39.80;;;;;;5058914;28;19970;-63
2023/04/25 12:37:29;;;;;;;;;;;20.00;39.80;;;;;;5059388;28;19928;-62
2023/04/25 12:39:56;;;;;;;;;;;20.00;39.80;;;;;;5083244;28;19928;-62
2023/04/25 12:42:24;;;;;;;;;;;20.00;39.80;;;;;;5064855;28;20503;-62
2023/04/25 12:44:51;;;;;;;;;;;20.00;39.80;;;;;;5068344;28;20320;-62
2023/04/25 12:47:18;;;;;;;;;;;20.00;39.80;;;;;;5063427;28;19947;-63
2023/04/25 12:49:45;;;;;;;;;;;20.00;39.80;;;;;;5082829;28;19924;-62
2023/04/25 12:52:11;;;;;;;;;;;20.00;39.80;;;;;;5064175;28;19928;-61
2023/04/25 12:54:38;;;;;;;;;;;20.00;39.90;;;;;;5066055;28;19949;-62
2023/04/25 12:57:05;;;;;;;;;;;20.00;39.80;;;;;;5082436;28;19959;-61
2023/04/25 12:59:33;;;;;;;;;;;20.10;39.90;;;;;;5084124;28;19920;-61
2023/04/25 13:02:00;;;;;;;;;;;20.10;39.90;;;;;;5066143;28;19928;-61
2023/04/25 13:04:26;;;;;;;;;;;20.10;39.90;;;;;;5064074;28;20036;-62
2023/04/25 13:06:53;;;;;;;;;;;20.10;40.00;;;;;;5067639;28;19924;-62
2023/04/25 13:09:20;;;;;;;;;;;20.10;40.00;;;;;;5078079;28;20023;-62
2023/04/25 13:11:47;;;;;;;;;;;20.10;40.00;;;;;;5065789;28;19932;-62
2023/04/25 13:14:13;;;;;;;;;;;20.10;40.30;;;;;;5065976;28;19925;-61
2023/04/25 13:16:42;;;;;;;;;;;20.10;40.00;;;;;;5081008;28;19925;-62
2023/04/25 13:19:11;;;;;;;;;;;20.10;40.00;;;;;;5078418;28;19939;-62
2023/04/25 13:21:37;;;;;;;;;;;20.10;40.00;;;;;;5067278;28;19928;-62
2023/04/25 13:24:06;;;;;;;;;;;20.10;40.00;;;;;;5063717;28;20143;-61
2023/04/25 13:26:33;;;;;;;;;;;20.10;40.00;;;;;;5082102;28;19920;-63
2023/04/25 13:29:03;;;;;;;;;;;20.10;40.10;;;;;;5073300;28;19973;-62
2023/04/25 13:31:30;;;;;;;;;;;20.10;40.10;;;;;;5078723;28;20061;-63
2023/04/25 13:33:58;;;;;;;;;;;20.10;40.00;;;;;;5062940;28;19921;-63
2023/04/25 13:36:25;;;;;;;;;;;20.10;40.00;;;;;;5064699;28;19924;-63
2023/04/25 13:38:52;;;;;;;;;;;20.10;40.00;;;;;;5062522;28;19920;-64
2023/04/25 13:41:19;;;;;;;;;;;20.10;40.00;;;;;;5085092;28;20362;-63
2023/04/25 13:43:47;;;;;;;;;;;20.10;40.10;;;;;;5063073;28;19970;-61
2023/04/25 13:46:15;;;;;;;;;;;20.10;40.10;;;;;;5081492;28;19942;-62
2023/04/25 13:48:46;;;;;;;;;;;20.10;40.10;;;;;;5066485;28;19983;-62
2023/04/25 13:51:18;;;;;;;;;;;20.10;40.10;;;;;;5062566;28;19920;-61
2023/04/25 13:53:45;;;;;;;;;;;20.10;40.10;;;;;;5084318;28;20011;-62
2023/04/25 13:56:12;;;;;;;;;;;20.10;40.10;;;;;;5078342;28;20370;-63
2023/04/25 13:58:39;;;;;;;;;;;20.10;40.10;;;;;;5063470;28;19920;-63
2023/04/25 14:01:06;;;;;;;;;;;20.20;40.20;;;;;;5081688;28;19952;-63
2023/04/25 14:03:33;;;;;;;;;;;20.20;40.20;;;;;;5081204;28;19959;-64
2023/04/25 14:06:00;;;;;;;;;;;20.20;40.20;;;;;;5061979;28;19932;-63
2023/04/25 14:08:28;;;;;;;;;;;20.20;40.20;;;;;;5066951;28;19932;-62
2023/04/25 14:10:55;;;;;;;;;;;20.20;40.20;;;;;;5066397;28;19930;-63
2023/04/25 14:13:23;;;;;;;;;;;20.20;40.20;;;;;;5086369;28;19924;-62
2023/04/25 14:15:50;;;;;;;;;;;20.10;40.10;;;;;;5086458;28;19927;-63
2023/04/25 14:18:17;;;;;;;;;;;20.10;40.10;;;;;;5084654;28;20015;-62
2023/04/25 14:20:43;;;;;;;;;;;20.10;40.20;;;;;;5069613;28;19920;-63
2023/04/25 14:23:10;;;;;;;;;;;20.20;40.30;;;;;;5073159;28;19924;-62
2023/04/25 14:25:38;;;;;;;;;;;20.20;40.20;;;;;;5083781;28;19939;-62
2023/04/25 14:28:06;;;;;;;;;;;20.10;40.10;;;;;;5066956;28;19920;-62
2023/04/25 14:30:32;;;;;;;;;;;20.20;40.30;;;;;;5085515;28;19952;-63
2023/04/25 14:32:59;;;;;;;;;;;20.20;40.30;;;;;;5054575;28;19925;-65
2023/04/25 14:35:26;;;;;;;;;;;20.20;40.30;;;;;;5070533;28;19969;-62
2023/04/25 14:37:53;;;;;;;;;;;20.20;40.30;;;;;;5079242;28;19943;-64
2023/04/25 14:40:22;;;;;;;;;;;20.20;40.30;;;;;;5078081;28;19924;-63
2023/04/25 14:42:51;;;;;;;;;;;20.20;40.30;;;;;;5063723;28;19924;-63
2023/04/25 14:45:18;;;;;;;;;;;20.20;40.30;;;;;;5086599;28;19927;-62
2023/04/25 14:47:45;;;;;;;;;;;20.20;40.30;;;;;;5064834;28;19923;-63
2023/04/25 14:50:12;;;;;;;;;;;20.20;40.30;;;;;;5088497;28;19973;-62
2023/04/25 14:52:39;;;;;;;;;;;20.20;40.90;;;;;;5084851;28;19925;-63
2023/04/25 14:55:05;;;;;;;;;;;20.20;40.30;;;;;;5063266;28;20358;-62
2023/04/25 14:57:32;;;;;;;;;;;20.20;40.30;;;;;;5085229;28;19932;-61
2023/04/25 15:00:01;;;;;;;;;;;20.20;40.30;;;;;;5062824;28;20055;-62